sensor_id;sensor_type;location;lat;lon;timestamp;P1;durP1;ratioP1;P2;durP2;ratioP2
15198;SDS011;7700;48.654;9.070;2023-08-31T00:00:10;1.63;;;1.40;;
15198;SDS011;7700;48.654;9.070;2023-08-31T00:02:37;2.53;;;1.50;;
15198;SDS011;7700;48.654;9.070;2023-08-31T00:05:04;2.10;;;1.63;;
15198;SDS011;7700;48.654;9.070;2023-08-31T00:07:30;3.13;;;1.77;;
15198;SDS011;7700;48.654;9.070;2023-08-31T00:09:57;1.95;;;1.70;;
15198;SDS011;7700;48.654;9.070;2023-08-31T00:12:23;3.38;;;1.92;;
15198;SDS011;7700;48.654;9.070;2023-08-31T00:14:49;2.10;;;1.90;;
15198;SDS011;7700;48.654;9.070;2023-08-31T00:17:15;2.50;;;2.10;;
15198;SDS011;7700;48.654;9.070;2023-08-31T00:19:42;1.80;;;1.70;;
15198;SDS011;7700;48.654;9.070;2023-08-31T00:22:08;2.15;;;1.90;;
15198;SDS011;7700;48.654;9.070;2023-08-31T00:24:34;4.13;;;2.20;;
15198;SDS011;7700;48.654;9.070;2023-08-31T00:27:02;2.40;;;1.90;;
15198;SDS011;7700;48.654;9.070;2023-08-31T00:29:28;2.78;;;1.95;;
15198;SDS011;7700;48.654;9.070;2023-08-31T00:31:54;2.60;;;2.05;;
15198;SDS011;7700;48.654;9.070;2023-08-31T00:34:20;2.38;;;2.00;;
15198;SDS011;7700;48.654;9.070;2023-08-31T00:36:46;2.40;;;2.10;;
15198;SDS011;7700;48.654;9.070;2023-08-31T00:39:13;3.35;;;2.33;;
15198;SDS011;7700;48.654;9.070;2023-08-31T00:41:39;5.18;;;2.30;;
15198;SDS011;7700;48.654;9.070;2023-08-31T00:44:05;4.43;;;2.30;;
15198;SDS011;7700;48.654;9.070;2023-08-31T00:46:31;3.42;;;2.13;;
15198;SDS011;7700;48.654;9.070;2023-08-31T00:48:57;3.13;;;2.00;;
15198;SDS011;7700;48.654;9.070;2023-08-31T00:51:23;2.10;;;1.90;;
15198;SDS011;7700;48.654;9.070;2023-08-31T00:53:52;3.13;;;2.13;;
15198;SDS011;7700;48.654;9.070;2023-08-31T00:56:19;3.50;;;2.28;;
15198;SDS011;7700;48.654;9.070;2023-08-31T00:58:46;2.53;;;2.20;;
15198;SDS011;7700;48.654;9.070;2023-08-31T01:01:34;3.17;;;2.70;;
15198;SDS011;7700;48.654;9.070;2023-08-31T01:09:31;2.45;;;2.25;;
15198;SDS011;7700;48.654;9.070;2023-08-31T01:14:30;2.03;;;1.70;;
15198;SDS011;7700;48.654;9.070;2023-08-31T01:16:57;2.38;;;1.80;;
15198;SDS011;7700;48.654;9.070;2023-08-31T01:22:13;2.40;;;1.70;;
15198;SDS011;7700;48.654;9.070;2023-08-31T01:24:42;1.60;;;1.50;;
15198;SDS011;7700;48.654;9.070;2023-08-31T01:27:08;2.85;;;1.52;;
15198;SDS011;7700;48.654;9.070;2023-08-31T01:29:35;2.95;;;1.60;;
15198;SDS011;7700;48.654;9.070;2023-08-31T01:32:04;2.05;;;1.80;;
15198;SDS011;7700;48.654;9.070;2023-08-31T01:34:30;3.80;;;1.70;;
15198;SDS011;7700;48.654;9.070;2023-08-31T01:36:58;2.78;;;2.03;;
15198;SDS011;7700;48.654;9.070;2023-08-31T01:39:47;3.58;;;2.08;;
15198;SDS011;7700;48.654;9.070;2023-08-31T01:42:12;1.63;;;1.52;;
15198;SDS011;7700;48.654;9.070;2023-08-31T01:44:39;3.03;;;1.80;;
15198;SDS011;7700;48.654;9.070;2023-08-31T01:47:06;1.88;;;1.65;;
15198;SDS011;7700;48.654;9.070;2023-08-31T01:49:39;2.35;;;2.15;;
15198;SDS011;7700;48.654;9.070;2023-08-31T01:52:05;2.05;;;1.85;;
15198;SDS011;7700;48.654;9.070;2023-08-31T01:54:32;1.88;;;1.77;;
15198;SDS011;7700;48.654;9.070;2023-08-31T01:56:58;2.78;;;1.90;;
15198;SDS011;7700;48.654;9.070;2023-08-31T01:59:24;2.78;;;2.00;;
15198;SDS011;7700;48.654;9.070;2023-08-31T02:01:51;2.35;;;2.15;;
15198;SDS011;7700;48.654;9.070;2023-08-31T02:04:17;2.45;;;2.25;;
15198;SDS011;7700;48.654;9.070;2023-08-31T02:06:43;2.10;;;2.00;;
15198;SDS011;7700;48.654;9.070;2023-08-31T02:09:09;2.17;;;2.08;;
15198;SDS011;7700;48.654;9.070;2023-08-31T02:11:35;4.07;;;2.40;;
15198;SDS011;7700;48.654;9.070;2023-08-31T02:14:03;3.03;;;2.47;;
15198;SDS011;7700;48.654;9.070;2023-08-31T02:16:30;2.53;;;2.30;;
15198;SDS011;7700;48.654;9.070;2023-08-31T02:18:56;2.65;;;2.40;;
15198;SDS011;7700;48.654;9.070;2023-08-31T02:21:22;2.78;;;2.17;;
15198;SDS011;7700;48.654;9.070;2023-08-31T02:23:48;2.70;;;2.50;;
15198;SDS011;7700;48.654;9.070;2023-08-31T02:26:14;3.72;;;2.50;;
15198;SDS011;7700;48.654;9.070;2023-08-31T02:28:40;2.60;;;2.37;;
15198;SDS011;7700;48.654;9.070;2023-08-31T02:31:06;4.13;;;2.55;;
15198;SDS011;7700;48.654;9.070;2023-08-31T02:33:32;3.00;;;2.60;;
15198;SDS011;7700;48.654;9.070;2023-08-31T02:35:58;4.28;;;2.55;;
15198;SDS011;7700;48.654;9.070;2023-08-31T02:38:23;3.10;;;2.80;;
15198;SDS011;7700;48.654;9.070;2023-08-31T02:40:51;4.03;;;2.80;;
15198;SDS011;7700;48.654;9.070;2023-08-31T02:43:17;4.63;;;2.92;;
15198;SDS011;7700;48.654;9.070;2023-08-31T02:45:43;2.72;;;2.53;;
15198;SDS011;7700;48.654;9.070;2023-08-31T02:48:09;2.90;;;2.70;;
15198;SDS011;7700;48.654;9.070;2023-08-31T02:50:35;4.93;;;2.78;;
15198;SDS011;7700;48.654;9.070;2023-08-31T02:53:01;2.53;;;2.25;;
15198;SDS011;7700;48.654;9.070;2023-08-31T02:55:27;3.17;;;2.75;;
15198;SDS011;7700;48.654;9.070;2023-08-31T02:57:53;2.90;;;2.70;;
15198;SDS011;7700;48.654;9.070;2023-08-31T03:00:20;2.40;;;2.22;;
15198;SDS011;7700;48.654;9.070;2023-08-31T03:02:49;3.70;;;3.10;;
15198;SDS011;7700;48.654;9.070;2023-08-31T03:05:17;3.20;;;2.90;;
15198;SDS011;7700;48.654;9.070;2023-08-31T03:07:43;2.78;;;2.50;;
15198;SDS011;7700;48.654;9.070;2023-08-31T03:10:09;4.17;;;3.07;;
15198;SDS011;7700;48.654;9.070;2023-08-31T03:12:35;3.05;;;2.72;;
15198;SDS011;7700;48.654;9.070;2023-08-31T03:15:01;5.23;;;3.10;;
15198;SDS011;7700;48.654;9.070;2023-08-31T03:17:27;5.30;;;3.13;;
15198;SDS011;7700;48.654;9.070;2023-08-31T03:19:53;5.37;;;3.17;;
15198;SDS011;7700;48.654;9.070;2023-08-31T03:22:19;3.27;;;2.93;;
15198;SDS011;7700;48.654;9.070;2023-08-31T03:24:45;3.60;;;3.30;;
15198;SDS011;7700;48.654;9.070;2023-08-31T03:27:11;5.43;;;3.20;;
15198;SDS011;7700;48.654;9.070;2023-08-31T03:29:37;3.13;;;2.80;;
15198;SDS011;7700;48.654;9.070;2023-08-31T03:32:04;4.67;;;3.37;;
15198;SDS011;7700;48.654;9.070;2023-08-31T03:34:30;4.30;;;3.10;;
15198;SDS011;7700;48.654;9.070;2023-08-31T03:36:57;3.80;;;2.90;;
15198;SDS011;7700;48.654;9.070;2023-08-31T03:39:23;3.90;;;3.10;;
15198;SDS011;7700;48.654;9.070;2023-08-31T03:41:50;3.27;;;2.97;;
15198;SDS011;7700;48.654;9.070;2023-08-31T03:44:15;4.13;;;3.53;;
15198;SDS011;7700;48.654;9.070;2023-08-31T03:46:42;5.75;;;3.53;;
15198;SDS011;7700;48.654;9.070;2023-08-31T03:49:08;5.67;;;3.63;;
15198;SDS011;7700;48.654;9.070;2023-08-31T03:51:34;3.33;;;3.03;;
15198;SDS011;7700;48.654;9.070;2023-08-31T03:54:00;4.57;;;3.73;;
15198;SDS011;7700;48.654;9.070;2023-08-31T03:56:26;5.30;;;3.90;;
15198;SDS011;7700;48.654;9.070;2023-08-31T03:58:52;3.97;;;3.40;;
15198;SDS011;7700;48.654;9.070;2023-08-31T04:01:18;4.85;;;3.13;;
15198;SDS011;7700;48.654;9.070;2023-08-31T04:03:44;3.30;;;2.97;;
15198;SDS011;7700;48.654;9.070;2023-08-31T04:06:10;3.85;;;3.40;;
15198;SDS011;7700;48.654;9.070;2023-08-31T04:08:36;5.13;;;3.95;;
15198;SDS011;7700;48.654;9.070;2023-08-31T04:11:02;3.20;;;3.00;;
15198;SDS011;7700;48.654;9.070;2023-08-31T04:13:28;4.55;;;3.40;;
15198;SDS011;7700;48.654;9.070;2023-08-31T04:15:54;4.57;;;3.20;;
15198;SDS011;7700;48.654;9.070;2023-08-31T04:18:20;3.85;;;3.10;;
15198;SDS011;7700;48.654;9.070;2023-08-31T04:20:48;4.22;;;3.83;;
15198;SDS011;7700;48.654;9.070;2023-08-31T04:23:14;4.35;;;3.38;;
15198;SDS011;7700;48.654;9.070;2023-08-31T04:25:40;3.63;;;3.17;;
15198;SDS011;7700;48.654;9.070;2023-08-31T04:28:07;3.92;;;3.00;;
15198;SDS011;7700;48.654;9.070;2023-08-31T04:30:33;3.90;;;3.35;;
15198;SDS011;7700;48.654;9.070;2023-08-31T04:32:58;3.45;;;3.15;;
15198;SDS011;7700;48.654;9.070;2023-08-31T04:35:24;3.95;;;3.63;;
15198;SDS011;7700;48.654;9.070;2023-08-31T04:37:50;4.90;;;2.97;;
15198;SDS011;7700;48.654;9.070;2023-08-31T04:40:16;5.63;;;3.55;;
15198;SDS011;7700;48.654;9.070;2023-08-31T04:42:42;4.53;;;3.40;;
15198;SDS011;7700;48.654;9.070;2023-08-31T04:45:08;4.43;;;3.10;;
15198;SDS011;7700;48.654;9.070;2023-08-31T04:47:36;3.95;;;3.30;;
15198;SDS011;7700;48.654;9.070;2023-08-31T04:50:02;4.10;;;3.57;;
15198;SDS011;7700;48.654;9.070;2023-08-31T04:52:28;6.30;;;3.60;;
15198;SDS011;7700;48.654;9.070;2023-08-31T04:54:54;7.32;;;3.80;;
15198;SDS011;7700;48.654;9.070;2023-08-31T04:57:20;4.50;;;3.28;;
15198;SDS011;7700;48.654;9.070;2023-08-31T04:59:46;4.22;;;3.58;;
15198;SDS011;7700;48.654;9.070;2023-08-31T05:02:12;4.18;;;3.33;;
15198;SDS011;7700;48.654;9.070;2023-08-31T05:04:38;4.13;;;3.37;;
15198;SDS011;7700;48.654;9.070;2023-08-31T05:07:04;4.55;;;3.90;;
15198;SDS011;7700;48.654;9.070;2023-08-31T05:09:30;4.53;;;3.20;;
15198;SDS011;7700;48.654;9.070;2023-08-31T05:12:03;6.63;;;3.78;;
15198;SDS011;7700;48.654;9.070;2023-08-31T05:14:29;4.72;;;4.25;;
15198;SDS011;7700;48.654;9.070;2023-08-31T05:16:55;3.85;;;3.53;;
15198;SDS011;7700;48.654;9.070;2023-08-31T05:19:21;4.07;;;3.60;;
15198;SDS011;7700;48.654;9.070;2023-08-31T05:21:47;4.05;;;3.53;;
15198;SDS011;7700;48.654;9.070;2023-08-31T05:24:13;4.43;;;3.88;;
15198;SDS011;7700;48.654;9.070;2023-08-31T05:26:39;5.38;;;3.67;;
15198;SDS011;7700;48.654;9.070;2023-08-31T05:29:05;6.03;;;3.90;;
15198;SDS011;7700;48.654;9.070;2023-08-31T05:31:31;5.47;;;3.55;;
15198;SDS011;7700;48.654;9.070;2023-08-31T05:33:57;4.78;;;3.88;;
15198;SDS011;7700;48.654;9.070;2023-08-31T05:36:23;3.40;;;2.92;;
15198;SDS011;7700;48.654;9.070;2023-08-31T05:38:52;5.68;;;3.67;;
15198;SDS011;7700;48.654;9.070;2023-08-31T05:41:18;6.13;;;3.15;;
15198;SDS011;7700;48.654;9.070;2023-08-31T05:43:44;4.28;;;3.85;;
15198;SDS011;7700;48.654;9.070;2023-08-31T05:46:10;4.15;;;3.80;;
15198;SDS011;7700;48.654;9.070;2023-08-31T05:48:36;3.88;;;3.45;;
15198;SDS011;7700;48.654;9.070;2023-08-31T05:51:03;5.25;;;3.90;;
15198;SDS011;7700;48.654;9.070;2023-08-31T05:53:31;3.35;;;3.05;;
15198;SDS011;7700;48.654;9.070;2023-08-31T05:55:58;4.57;;;3.70;;
15198;SDS011;7700;48.654;9.070;2023-08-31T05:58:32;5.97;;;3.40;;
15198;SDS011;7700;48.654;9.070;2023-08-31T06:00:58;4.47;;;3.50;;
15198;SDS011;7700;48.654;9.070;2023-08-31T06:03:24;3.15;;;2.85;;
15198;SDS011;7700;48.654;9.070;2023-08-31T06:05:50;5.28;;;3.15;;
15198;SDS011;7700;48.654;9.070;2023-08-31T06:08:16;3.95;;;3.30;;
15198;SDS011;7700;48.654;9.070;2023-08-31T06:10:42;5.85;;;3.10;;
15198;SDS011;7700;48.654;9.070;2023-08-31T06:13:08;6.22;;;3.38;;
15198;SDS011;7700;48.654;9.070;2023-08-31T06:15:34;4.35;;;3.35;;
15198;SDS011;7700;48.654;9.070;2023-08-31T06:18:00;5.47;;;3.85;;
15198;SDS011;7700;48.654;9.070;2023-08-31T06:20:27;5.57;;;3.35;;
15198;SDS011;7700;48.654;9.070;2023-08-31T06:22:53;4.10;;;2.92;;
15198;SDS011;7700;48.654;9.070;2023-08-31T06:25:19;3.90;;;3.60;;
15198;SDS011;7700;48.654;9.070;2023-08-31T06:27:47;6.25;;;3.70;;
15198;SDS011;7700;48.654;9.070;2023-08-31T06:30:13;3.58;;;3.20;;
15198;SDS011;7700;48.654;9.070;2023-08-31T06:32:43;4.68;;;3.30;;
15198;SDS011;7700;48.654;9.070;2023-08-31T06:35:10;6.05;;;3.70;;
15198;SDS011;7700;48.654;9.070;2023-08-31T06:37:37;3.70;;;3.22;;
15198;SDS011;7700;48.654;9.070;2023-08-31T06:40:03;3.58;;;3.22;;
15198;SDS011;7700;48.654;9.070;2023-08-31T06:42:29;3.90;;;2.88;;
15198;SDS011;7700;48.654;9.070;2023-08-31T06:44:56;4.93;;;3.40;;
15198;SDS011;7700;48.654;9.070;2023-08-31T06:47:22;4.00;;;2.75;;
15198;SDS011;7700;48.654;9.070;2023-08-31T06:49:49;3.40;;;2.78;;
15198;SDS011;7700;48.654;9.070;2023-08-31T06:52:15;3.88;;;2.75;;
15198;SDS011;7700;48.654;9.070;2023-08-31T06:54:42;4.20;;;2.58;;
15198;SDS011;7700;48.654;9.070;2023-08-31T06:57:08;2.95;;;2.20;;
15198;SDS011;7700;48.654;9.070;2023-08-31T06:59:34;4.72;;;2.58;;
15198;SDS011;7700;48.654;9.070;2023-08-31T07:01:59;5.80;;;2.80;;
15198;SDS011;7700;48.654;9.070;2023-08-31T07:04:28;3.47;;;2.40;;
15198;SDS011;7700;48.654;9.070;2023-08-31T07:06:54;4.50;;;2.55;;
15198;SDS011;7700;48.654;9.070;2023-08-31T07:09:20;6.15;;;2.60;;
15198;SDS011;7700;48.654;9.070;2023-08-31T07:11:46;4.63;;;2.20;;
15198;SDS011;7700;48.654;9.070;2023-08-31T07:14:12;2.83;;;2.03;;
15198;SDS011;7700;48.654;9.070;2023-08-31T07:16:38;3.63;;;2.10;;
15198;SDS011;7700;48.654;9.070;2023-08-31T07:19:04;3.38;;;1.92;;
15198;SDS011;7700;48.654;9.070;2023-08-31T07:21:30;3.38;;;2.22;;
15198;SDS011;7700;48.654;9.070;2023-08-31T07:23:56;3.53;;;2.10;;
15198;SDS011;7700;48.654;9.070;2023-08-31T07:26:22;3.75;;;2.03;;
15198;SDS011;7700;48.654;9.070;2023-08-31T07:28:48;3.28;;;1.75;;
15198;SDS011;7700;48.654;9.070;2023-08-31T07:31:14;3.35;;;2.00;;
15198;SDS011;7700;48.654;9.070;2023-08-31T07:33:41;4.05;;;1.75;;
15198;SDS011;7700;48.654;9.070;2023-08-31T07:36:07;3.53;;;2.20;;
15198;SDS011;7700;48.654;9.070;2023-08-31T07:38:34;2.58;;;1.95;;
15198;SDS011;7700;48.654;9.070;2023-08-31T07:41:00;2.65;;;1.75;;
15198;SDS011;7700;48.654;9.070;2023-08-31T07:43:26;4.30;;;2.28;;
15198;SDS011;7700;48.654;9.070;2023-08-31T07:45:52;3.72;;;2.00;;
15198;SDS011;7700;48.654;9.070;2023-08-31T07:48:18;4.10;;;1.77;;
15198;SDS011;7700;48.654;9.070;2023-08-31T07:50:44;4.15;;;1.70;;
15198;SDS011;7700;48.654;9.070;2023-08-31T07:53:11;2.38;;;1.63;;
15198;SDS011;7700;48.654;9.070;2023-08-31T07:55:37;2.95;;;1.63;;
15198;SDS011;7700;48.654;9.070;2023-08-31T07:58:04;3.47;;;1.92;;
15198;SDS011;7700;48.654;9.070;2023-08-31T08:00:30;2.30;;;1.73;;
15198;SDS011;7700;48.654;9.070;2023-08-31T08:02:56;4.07;;;2.13;;
15198;SDS011;7700;48.654;9.070;2023-08-31T08:05:21;2.03;;;1.80;;
15198;SDS011;7700;48.654;9.070;2023-08-31T08:07:47;2.75;;;1.58;;
15198;SDS011;7700;48.654;9.070;2023-08-31T08:10:13;3.00;;;1.83;;
15198;SDS011;7700;48.654;9.070;2023-08-31T08:12:40;4.70;;;1.98;;
15198;SDS011;7700;48.654;9.070;2023-08-31T08:15:08;2.38;;;1.63;;
15198;SDS011;7700;48.654;9.070;2023-08-31T08:17:34;2.47;;;1.65;;
15198;SDS011;7700;48.654;9.070;2023-08-31T08:20:00;2.88;;;1.85;;
15198;SDS011;7700;48.654;9.070;2023-08-31T08:22:26;3.03;;;1.80;;
15198;SDS011;7700;48.654;9.070;2023-08-31T08:24:52;6.65;;;2.08;;
15198;SDS011;7700;48.654;9.070;2023-08-31T08:27:18;4.10;;;1.80;;
15198;SDS011;7700;48.654;9.070;2023-08-31T08:29:45;2.30;;;1.60;;
15198;SDS011;7700;48.654;9.070;2023-08-31T08:32:11;3.55;;;1.83;;
15198;SDS011;7700;48.654;9.070;2023-08-31T08:34:38;2.95;;;1.77;;
15198;SDS011;7700;48.654;9.070;2023-08-31T08:37:04;2.97;;;1.60;;
15198;SDS011;7700;48.654;9.070;2023-08-31T08:39:30;3.83;;;2.15;;
15198;SDS011;7700;48.654;9.070;2023-08-31T08:41:57;3.03;;;1.60;;
15198;SDS011;7700;48.654;9.070;2023-08-31T08:44:24;2.47;;;1.60;;
15198;SDS011;7700;48.654;9.070;2023-08-31T08:46:53;4.15;;;2.00;;
15198;SDS011;7700;48.654;9.070;2023-08-31T08:49:20;5.05;;;1.50;;
15198;SDS011;7700;48.654;9.070;2023-08-31T08:51:47;2.92;;;1.95;;
15198;SDS011;7700;48.654;9.070;2023-08-31T08:54:13;3.28;;;1.60;;
15198;SDS011;7700;48.654;9.070;2023-08-31T08:56:39;6.53;;;2.10;;
15198;SDS011;7700;48.654;9.070;2023-08-31T08:59:05;2.92;;;1.73;;
15198;SDS011;7700;48.654;9.070;2023-08-31T09:01:32;5.32;;;2.10;;
15198;SDS011;7700;48.654;9.070;2023-08-31T09:04:00;18.05;;;2.63;;
15198;SDS011;7700;48.654;9.070;2023-08-31T09:06:27;4.03;;;1.90;;
15198;SDS011;7700;48.654;9.070;2023-08-31T09:08:56;3.53;;;1.90;;
15198;SDS011;7700;48.654;9.070;2023-08-31T09:11:22;2.63;;;1.90;;
15198;SDS011;7700;48.654;9.070;2023-08-31T09:13:49;3.50;;;2.20;;
15198;SDS011;7700;48.654;9.070;2023-08-31T09:16:28;3.25;;;1.88;;
15198;SDS011;7700;48.654;9.070;2023-08-31T09:18:57;3.65;;;1.83;;
15198;SDS011;7700;48.654;9.070;2023-08-31T09:21:36;3.55;;;1.70;;
15198;SDS011;7700;48.654;9.070;2023-08-31T09:24:04;3.42;;;1.80;;
15198;SDS011;7700;48.654;9.070;2023-08-31T09:26:36;2.40;;;1.63;;
15198;SDS011;7700;48.654;9.070;2023-08-31T09:29:04;4.70;;;1.83;;
15198;SDS011;7700;48.654;9.070;2023-08-31T09:31:29;3.95;;;1.90;;
15198;SDS011;7700;48.654;9.070;2023-08-31T09:33:56;5.38;;;1.90;;
15198;SDS011;7700;48.654;9.070;2023-08-31T09:36:22;2.60;;;1.85;;
15198;SDS011;7700;48.654;9.070;2023-08-31T09:38:48;4.00;;;1.80;;
15198;SDS011;7700;48.654;9.070;2023-08-31T09:41:14;3.85;;;1.80;;
15198;SDS011;7700;48.654;9.070;2023-08-31T09:43:40;3.50;;;1.70;;
15198;SDS011;7700;48.654;9.070;2023-08-31T09:46:06;4.90;;;2.00;;
15198;SDS011;7700;48.654;9.070;2023-08-31T09:48:32;4.68;;;1.92;;
15198;SDS011;7700;48.654;9.070;2023-08-31T09:50:59;3.10;;;1.67;;
15198;SDS011;7700;48.654;9.070;2023-08-31T09:53:28;5.88;;;2.10;;
15198;SDS011;7700;48.654;9.070;2023-08-31T09:55:55;3.35;;;1.70;;
15198;SDS011;7700;48.654;9.070;2023-08-31T09:58:21;3.42;;;1.83;;
15198;SDS011;7700;48.654;9.070;2023-08-31T10:03:30;4.47;;;2.00;;
15198;SDS011;7700;48.654;9.070;2023-08-31T10:05:56;3.78;;;1.73;;
15198;SDS011;7700;48.654;9.070;2023-08-31T10:08:24;3.20;;;1.77;;
15198;SDS011;7700;48.654;9.070;2023-08-31T10:10:53;2.00;;;1.50;;
15198;SDS011;7700;48.654;9.070;2023-08-31T10:13:19;3.10;;;1.95;;
15198;SDS011;7700;48.654;9.070;2023-08-31T10:15:47;2.95;;;1.90;;
15198;SDS011;7700;48.654;9.070;2023-08-31T10:18:15;6.38;;;1.92;;
15198;SDS011;7700;48.654;9.070;2023-08-31T10:20:41;4.05;;;2.03;;
15198;SDS011;7700;48.654;9.070;2023-08-31T10:23:07;3.13;;;1.75;;
15198;SDS011;7700;48.654;9.070;2023-08-31T10:28:18;4.55;;;1.77;;
15198;SDS011;7700;48.654;9.070;2023-08-31T10:34:04;20.55;;;2.97;;
15198;SDS011;7700;48.654;9.070;2023-08-31T10:39:06;5.22;;;2.05;;
15198;SDS011;7700;48.654;9.070;2023-08-31T10:41:34;2.40;;;1.77;;
15198;SDS011;7700;48.654;9.070;2023-08-31T10:44:00;2.95;;;2.05;;
15198;SDS011;7700;48.654;9.070;2023-08-31T10:46:33;4.32;;;2.10;;
15198;SDS011;7700;48.654;9.070;2023-08-31T10:49:00;2.88;;;1.73;;
15198;SDS011;7700;48.654;9.070;2023-08-31T10:51:30;4.40;;;2.00;;
15198;SDS011;7700;48.654;9.070;2023-08-31T10:54:07;3.78;;;1.95;;
15198;SDS011;7700;48.654;9.070;2023-08-31T10:59:49;4.22;;;1.83;;
15198;SDS011;7700;48.654;9.070;2023-08-31T11:02:28;4.50;;;2.30;;
15198;SDS011;7700;48.654;9.070;2023-08-31T11:04:55;3.60;;;2.10;;
15198;SDS011;7700;48.654;9.070;2023-08-31T11:07:25;3.70;;;1.95;;
15198;SDS011;7700;48.654;9.070;2023-08-31T11:09:52;2.78;;;1.77;;
15198;SDS011;7700;48.654;9.070;2023-08-31T11:12:21;2.33;;;1.80;;
15198;SDS011;7700;48.654;9.070;2023-08-31T11:14:48;3.58;;;2.28;;
15198;SDS011;7700;48.654;9.070;2023-08-31T11:17:14;2.95;;;2.40;;
15198;SDS011;7700;48.654;9.070;2023-08-31T11:19:40;3.80;;;2.00;;
15198;SDS011;7700;48.654;9.070;2023-08-31T11:22:06;4.22;;;2.00;;
15198;SDS011;7700;48.654;9.070;2023-08-31T11:24:35;3.75;;;2.00;;
15198;SDS011;7700;48.654;9.070;2023-08-31T11:27:01;3.15;;;2.00;;
15198;SDS011;7700;48.654;9.070;2023-08-31T11:29:30;2.75;;;1.88;;
15198;SDS011;7700;48.654;9.070;2023-08-31T11:31:56;3.20;;;1.83;;
15198;SDS011;7700;48.654;9.070;2023-08-31T11:34:25;2.58;;;1.92;;
15198;SDS011;7700;48.654;9.070;2023-08-31T11:36:51;3.30;;;1.88;;
15198;SDS011;7700;48.654;9.070;2023-08-31T11:39:17;3.33;;;2.03;;
15198;SDS011;7700;48.654;9.070;2023-08-31T11:41:43;4.28;;;1.73;;
15198;SDS011;7700;48.654;9.070;2023-08-31T11:44:11;5.43;;;2.08;;
15198;SDS011;7700;48.654;9.070;2023-08-31T11:46:37;2.22;;;1.85;;
15198;SDS011;7700;48.654;9.070;2023-08-31T11:49:04;4.30;;;1.90;;
15198;SDS011;7700;48.654;9.070;2023-08-31T11:51:31;2.70;;;1.92;;
15198;SDS011;7700;48.654;9.070;2023-08-31T11:53:57;2.72;;;1.90;;
15198;SDS011;7700;48.654;9.070;2023-08-31T11:56:24;5.15;;;1.73;;
15198;SDS011;7700;48.654;9.070;2023-08-31T11:58:51;3.47;;;2.03;;
15198;SDS011;7700;48.654;9.070;2023-08-31T12:01:17;3.28;;;1.70;;
15198;SDS011;7700;48.654;9.070;2023-08-31T12:03:44;3.17;;;1.88;;
15198;SDS011;7700;48.654;9.070;2023-08-31T12:06:10;2.47;;;2.00;;
15198;SDS011;7700;48.654;9.070;2023-08-31T12:08:36;3.17;;;1.73;;
15198;SDS011;7700;48.654;9.070;2023-08-31T12:11:03;3.00;;;2.10;;
15198;SDS011;7700;48.654;9.070;2023-08-31T12:13:31;2.90;;;2.00;;
15198;SDS011;7700;48.654;9.070;2023-08-31T12:15:57;3.80;;;1.80;;
15198;SDS011;7700;48.654;9.070;2023-08-31T12:18:23;3.10;;;2.13;;
15198;SDS011;7700;48.654;9.070;2023-08-31T12:20:50;4.10;;;2.13;;
15198;SDS011;7700;48.654;9.070;2023-08-31T12:23:17;3.53;;;1.80;;
15198;SDS011;7700;48.654;9.070;2023-08-31T12:25:49;4.97;;;1.95;;
15198;SDS011;7700;48.654;9.070;2023-08-31T12:28:18;2.60;;;1.65;;
15198;SDS011;7700;48.654;9.070;2023-08-31T12:30:48;4.47;;;2.20;;
15198;SDS011;7700;48.654;9.070;2023-08-31T12:33:14;4.50;;;2.40;;
15198;SDS011;7700;48.654;9.070;2023-08-31T12:35:40;3.75;;;1.83;;
15198;SDS011;7700;48.654;9.070;2023-08-31T12:38:06;2.22;;;1.67;;
15198;SDS011;7700;48.654;9.070;2023-08-31T12:40:32;2.97;;;1.83;;
15198;SDS011;7700;48.654;9.070;2023-08-31T12:43:03;3.05;;;2.08;;
15198;SDS011;7700;48.654;9.070;2023-08-31T12:45:29;3.22;;;1.90;;
15198;SDS011;7700;48.654;9.070;2023-08-31T12:47:55;2.65;;;2.33;;
15198;SDS011;7700;48.654;9.070;2023-08-31T12:50:21;3.80;;;1.65;;
15198;SDS011;7700;48.654;9.070;2023-08-31T12:52:47;3.13;;;2.22;;
15198;SDS011;7700;48.654;9.070;2023-08-31T12:55:13;3.95;;;1.80;;
15198;SDS011;7700;48.654;9.070;2023-08-31T12:57:40;3.38;;;1.83;;
15198;SDS011;7700;48.654;9.070;2023-08-31T13:00:09;3.90;;;1.92;;
15198;SDS011;7700;48.654;9.070;2023-08-31T13:02:39;2.85;;;1.67;;
15198;SDS011;7700;48.654;9.070;2023-08-31T13:05:06;4.25;;;1.60;;
15198;SDS011;7700;48.654;9.070;2023-08-31T13:07:33;2.85;;;1.40;;
15198;SDS011;7700;48.654;9.070;2023-08-31T13:09:59;3.55;;;1.70;;
15198;SDS011;7700;48.654;9.070;2023-08-31T13:12:26;2.65;;;1.60;;
15198;SDS011;7700;48.654;9.070;2023-08-31T13:14:53;4.00;;;1.80;;
15198;SDS011;7700;48.654;9.070;2023-08-31T13:17:19;2.80;;;1.67;;
15198;SDS011;7700;48.654;9.070;2023-08-31T13:19:45;3.22;;;1.88;;
15198;SDS011;7700;48.654;9.070;2023-08-31T13:22:11;3.15;;;1.98;;
15198;SDS011;7700;48.654;9.070;2023-08-31T13:24:40;2.97;;;1.80;;
15198;SDS011;7700;48.654;9.070;2023-08-31T13:27:06;4.15;;;1.73;;
15198;SDS011;7700;48.654;9.070;2023-08-31T13:29:32;6.07;;;1.80;;
15198;SDS011;7700;48.654;9.070;2023-08-31T13:31:58;2.85;;;1.80;;
15198;SDS011;7700;48.654;9.070;2023-08-31T13:34:24;4.55;;;2.10;;
15198;SDS011;7700;48.654;9.070;2023-08-31T13:36:50;3.00;;;1.50;;
15198;SDS011;7700;48.654;9.070;2023-08-31T13:39:16;3.17;;;1.92;;
15198;SDS011;7700;48.654;9.070;2023-08-31T13:41:42;4.65;;;2.00;;
15198;SDS011;7700;48.654;9.070;2023-08-31T13:44:11;3.03;;;1.90;;
15198;SDS011;7700;48.654;9.070;2023-08-31T13:46:37;2.53;;;1.67;;
15198;SDS011;7700;48.654;9.070;2023-08-31T13:49:03;3.83;;;2.08;;
15198;SDS011;7700;48.654;9.070;2023-08-31T13:51:29;3.20;;;1.65;;
15198;SDS011;7700;48.654;9.070;2023-08-31T13:53:55;2.70;;;1.65;;
15198;SDS011;7700;48.654;9.070;2023-08-31T13:56:21;4.53;;;1.98;;
15198;SDS011;7700;48.654;9.070;2023-08-31T13:58:48;3.78;;;2.00;;
15198;SDS011;7700;48.654;9.070;2023-08-31T14:01:14;2.83;;;1.83;;
15198;SDS011;7700;48.654;9.070;2023-08-31T14:03:39;2.05;;;1.75;;
15198;SDS011;7700;48.654;9.070;2023-08-31T14:06:06;4.47;;;2.00;;
15198;SDS011;7700;48.654;9.070;2023-08-31T14:08:33;3.78;;;1.65;;
15198;SDS011;7700;48.654;9.070;2023-08-31T14:10:59;2.15;;;1.55;;
15198;SDS011;7700;48.654;9.070;2023-08-31T14:13:26;3.17;;;1.83;;
15198;SDS011;7700;48.654;9.070;2023-08-31T14:15:52;4.13;;;2.20;;
15198;SDS011;7700;48.654;9.070;2023-08-31T14:18:19;3.90;;;1.98;;
15198;SDS011;7700;48.654;9.070;2023-08-31T14:20:46;3.45;;;1.70;;
15198;SDS011;7700;48.654;9.070;2023-08-31T14:23:12;3.58;;;1.90;;
15198;SDS011;7700;48.654;9.070;2023-08-31T14:25:38;4.45;;;1.88;;
15198;SDS011;7700;48.654;9.070;2023-08-31T14:28:04;4.85;;;2.15;;
15198;SDS011;7700;48.654;9.070;2023-08-31T14:30:30;3.88;;;1.85;;
15198;SDS011;7700;48.654;9.070;2023-08-31T14:32:56;3.78;;;1.95;;
15198;SDS011;7700;48.654;9.070;2023-08-31T14:35:22;2.83;;;1.88;;
15198;SDS011;7700;48.654;9.070;2023-08-31T14:37:48;3.58;;;2.05;;
15198;SDS011;7700;48.654;9.070;2023-08-31T14:40:14;5.70;;;2.35;;
15198;SDS011;7700;48.654;9.070;2023-08-31T14:42:40;2.75;;;1.77;;
15198;SDS011;7700;48.654;9.070;2023-08-31T14:45:06;3.45;;;1.75;;
15198;SDS011;7700;48.654;9.070;2023-08-31T14:47:32;4.80;;;2.20;;
15198;SDS011;7700;48.654;9.070;2023-08-31T14:49:58;2.60;;;1.65;;
15198;SDS011;7700;48.654;9.070;2023-08-31T14:52:25;2.88;;;1.80;;
15198;SDS011;7700;48.654;9.070;2023-08-31T14:54:51;3.17;;;2.15;;
15198;SDS011;7700;48.654;9.070;2023-08-31T14:57:17;5.72;;;2.30;;
15198;SDS011;7700;48.654;9.070;2023-08-31T14:59:43;6.40;;;2.20;;
15198;SDS011;7700;48.654;9.070;2023-08-31T15:02:09;2.40;;;1.85;;
15198;SDS011;7700;48.654;9.070;2023-08-31T15:04:35;4.78;;;1.95;;
15198;SDS011;7700;48.654;9.070;2023-08-31T15:07:01;3.22;;;2.05;;
15198;SDS011;7700;48.654;9.070;2023-08-31T15:09:27;5.30;;;2.25;;
15198;SDS011;7700;48.654;9.070;2023-08-31T15:11:54;4.75;;;2.50;;
15198;SDS011;7700;48.654;9.070;2023-08-31T15:14:20;5.43;;;2.00;;
15198;SDS011;7700;48.654;9.070;2023-08-31T15:16:45;4.03;;;1.92;;
15198;SDS011;7700;48.654;9.070;2023-08-31T15:19:11;3.63;;;1.90;;
15198;SDS011;7700;48.654;9.070;2023-08-31T15:21:37;4.63;;;2.20;;